sensor_id;sensor_type;location;lat;lon;timestamp;P1;durP1;ratioP1;P2;durP2;ratioP2
78324;SDS011;67584;51.400;6.692;2023-04-06T00:01:38;14.02;;;7.50;;
78324;SDS011;67584;51.400;6.692;2023-04-06T00:04:04;9.23;;;6.78;;
78324;SDS011;67584;51.400;6.692;2023-04-06T00:06:32;14.02;;;6.60;;
78324;SDS011;67584;51.400;6.692;2023-04-06T00:08:58;9.93;;;6.43;;
78324;SDS011;67584;51.400;6.692;2023-04-06T00:11:25;13.60;;;6.47;;
78324;SDS011;67584;51.400;6.692;2023-04-06T00:13:52;9.73;;;6.47;;
78324;SDS011;67584;51.400;6.692;2023-04-06T00:16:18;10.40;;;6.60;;
78324;SDS011;67584;51.400;6.692;2023-04-06T00:18:45;13.43;;;7.18;;
78324;SDS011;67584;51.400;6.692;2023-04-06T00:21:11;10.43;;;6.45;;
78324;SDS011;67584;51.400;6.692;2023-04-06T00:23:38;9.60;;;6.13;;
78324;SDS011;67584;51.400;6.692;2023-04-06T00:26:04;13.40;;;6.72;;
78324;SDS011;67584;51.400;6.692;2023-04-06T00:28:30;10.52;;;6.72;;
78324;SDS011;67584;51.400;6.692;2023-04-06T00:30:57;10.55;;;7.35;;
78324;SDS011;67584;51.400;6.692;2023-04-06T00:33:22;10.65;;;6.05;;
78324;SDS011;67584;51.400;6.692;2023-04-06T00:35:49;10.73;;;6.25;;
78324;SDS011;67584;51.400;6.692;2023-04-06T00:38:15;10.82;;;7.30;;
78324;SDS011;67584;51.400;6.692;2023-04-06T00:40:42;9.90;;;5.97;;
78324;SDS011;67584;51.400;6.692;2023-04-06T00:43:10;10.32;;;6.30;;
78324;SDS011;67584;51.400;6.692;2023-04-06T00:45:40;10.35;;;6.20;;
78324;SDS011;67584;51.400;6.692;2023-04-06T00:48:08;10.80;;;6.03;;
78324;SDS011;67584;51.400;6.692;2023-04-06T00:50:37;12.20;;;6.47;;
78324;SDS011;67584;51.400;6.692;2023-04-06T00:53:02;12.10;;;6.15;;
78324;SDS011;67584;51.400;6.692;2023-04-06T00:55:29;10.35;;;5.97;;
78324;SDS011;67584;51.400;6.692;2023-04-06T00:57:56;7.93;;;6.03;;
78324;SDS011;67584;51.400;6.692;2023-04-06T01:00:24;9.80;;;6.15;;
78324;SDS011;67584;51.400;6.692;2023-04-06T01:02:56;12.10;;;7.43;;
78324;SDS011;67584;51.400;6.692;2023-04-06T01:05:29;10.27;;;6.03;;
78324;SDS011;67584;51.400;6.692;2023-04-06T01:07:57;10.07;;;6.05;;
78324;SDS011;67584;51.400;6.692;2023-04-06T01:10:27;9.35;;;6.20;;
78324;SDS011;67584;51.400;6.692;2023-04-06T01:13:11;11.07;;;6.20;;
78324;SDS011;67584;51.400;6.692;2023-04-06T01:15:53;9.00;;;5.93;;
78324;SDS011;67584;51.400;6.692;2023-04-06T01:18:26;12.45;;;5.97;;
78324;SDS011;67584;51.400;6.692;2023-04-06T01:21:12;8.52;;;5.90;;
78324;SDS011;67584;51.400;6.692;2023-04-06T01:23:48;9.73;;;6.38;;
78324;SDS011;67584;51.400;6.692;2023-04-06T01:26:20;12.65;;;7.53;;
78324;SDS011;67584;51.400;6.692;2023-04-06T01:28:46;9.88;;;6.20;;
78324;SDS011;67584;51.400;6.692;2023-04-06T01:31:27;11.32;;;6.68;;
78324;SDS011;67584;51.400;6.692;2023-04-06T01:33:53;10.07;;;6.80;;
78324;SDS011;67584;51.400;6.692;2023-04-06T01:36:31;10.07;;;6.78;;
78324;SDS011;67584;51.400;6.692;2023-04-06T01:39:06;13.25;;;7.72;;
78324;SDS011;67584;51.400;6.692;2023-04-06T01:41:37;10.32;;;7.50;;
78324;SDS011;67584;51.400;6.692;2023-04-06T01:44:03;9.25;;;6.88;;
78324;SDS011;67584;51.400;6.692;2023-04-06T01:46:30;13.32;;;7.75;;
78324;SDS011;67584;51.400;6.692;2023-04-06T01:48:58;10.52;;;6.68;;
78324;SDS011;67584;51.400;6.692;2023-04-06T01:51:36;13.18;;;8.10;;
78324;SDS011;67584;51.400;6.692;2023-04-06T01:54:05;13.75;;;8.00;;
78324;SDS011;67584;51.400;6.692;2023-04-06T01:57:09;14.32;;;7.63;;
78324;SDS011;67584;51.400;6.692;2023-04-06T01:59:42;13.07;;;7.63;;
78324;SDS011;67584;51.400;6.692;2023-04-06T02:02:18;15.98;;;7.00;;
78324;SDS011;67584;51.400;6.692;2023-04-06T02:04:53;10.75;;;6.88;;
78324;SDS011;67584;51.400;6.692;2023-04-06T02:07:22;12.50;;;7.53;;
78324;SDS011;67584;51.400;6.692;2023-04-06T02:09:48;11.63;;;7.20;;
78324;SDS011;67584;51.400;6.692;2023-04-06T02:12:23;12.35;;;8.43;;
78324;SDS011;67584;51.400;6.692;2023-04-06T02:14:49;16.17;;;8.93;;
78324;SDS011;67584;51.400;6.692;2023-04-06T02:17:15;15.43;;;8.23;;
78324;SDS011;67584;51.400;6.692;2023-04-06T02:19:41;10.85;;;7.80;;
78324;SDS011;67584;51.400;6.692;2023-04-06T02:22:07;12.45;;;8.27;;
78324;SDS011;67584;51.400;6.692;2023-04-06T02:24:35;13.35;;;8.73;;
78324;SDS011;67584;51.400;6.692;2023-04-06T02:27:01;14.18;;;8.90;;
78324;SDS011;67584;51.400;6.692;2023-04-06T02:29:27;13.13;;;7.85;;
78324;SDS011;67584;51.400;6.692;2023-04-06T02:31:54;17.02;;;8.98;;
78324;SDS011;67584;51.400;6.692;2023-04-06T02:34:20;13.82;;;7.90;;
78324;SDS011;67584;51.400;6.692;2023-04-06T02:36:49;12.05;;;7.93;;
78324;SDS011;67584;51.400;6.692;2023-04-06T02:39:15;12.43;;;8.70;;
78324;SDS011;67584;51.400;6.692;2023-04-06T02:41:42;15.65;;;8.80;;
78324;SDS011;67584;51.400;6.692;2023-04-06T02:44:09;14.73;;;8.93;;
78324;SDS011;67584;51.400;6.692;2023-04-06T02:46:43;14.18;;;8.52;;
78324;SDS011;67584;51.400;6.692;2023-04-06T02:49:09;13.88;;;8.07;;
78324;SDS011;67584;51.400;6.692;2023-04-06T02:51:35;13.77;;;8.75;;
78324;SDS011;67584;51.400;6.692;2023-04-06T02:54:17;15.77;;;8.63;;
78324;SDS011;67584;51.400;6.692;2023-04-06T02:56:43;14.18;;;8.70;;
78324;SDS011;67584;51.400;6.692;2023-04-06T02:59:09;12.25;;;8.30;;
78324;SDS011;67584;51.400;6.692;2023-04-06T03:01:36;15.98;;;9.55;;
78324;SDS011;67584;51.400;6.692;2023-04-06T03:04:04;18.60;;;8.43;;
78324;SDS011;67584;51.400;6.692;2023-04-06T03:06:29;13.23;;;8.65;;
78324;SDS011;67584;51.400;6.692;2023-04-06T03:09:03;15.32;;;9.68;;
78324;SDS011;67584;51.400;6.692;2023-04-06T03:11:32;13.95;;;9.25;;
78324;SDS011;67584;51.400;6.692;2023-04-06T03:14:08;16.55;;;10.52;;
78324;SDS011;67584;51.400;6.692;2023-04-06T03:16:34;14.10;;;9.15;;
78324;SDS011;67584;51.400;6.692;2023-04-06T03:19:01;19.70;;;10.50;;
78324;SDS011;67584;51.400;6.692;2023-04-06T03:21:31;13.80;;;9.55;;
78324;SDS011;67584;51.400;6.692;2023-04-06T03:23:57;16.73;;;10.07;;
78324;SDS011;67584;51.400;6.692;2023-04-06T03:26:23;14.25;;;9.82;;
78324;SDS011;67584;51.400;6.692;2023-04-06T03:28:50;16.90;;;9.90;;
78324;SDS011;67584;51.400;6.692;2023-04-06T03:31:18;16.33;;;9.25;;
78324;SDS011;67584;51.400;6.692;2023-04-06T03:34:05;16.02;;;10.13;;
78324;SDS011;67584;51.400;6.692;2023-04-06T03:36:35;17.88;;;9.15;;
78324;SDS011;67584;51.400;6.692;2023-04-06T03:39:03;16.10;;;9.50;;
78324;SDS011;67584;51.400;6.692;2023-04-06T03:41:31;23.35;;;10.98;;
78324;SDS011;67584;51.400;6.692;2023-04-06T03:44:03;18.33;;;10.50;;
78324;SDS011;67584;51.400;6.692;2023-04-06T03:46:30;18.23;;;9.63;;
78324;SDS011;67584;51.400;6.692;2023-04-06T03:48:57;14.00;;;9.70;;
78324;SDS011;67584;51.400;6.692;2023-04-06T03:51:23;13.68;;;8.27;;
78324;SDS011;67584;51.400;6.692;2023-04-06T03:53:50;18.45;;;10.65;;
78324;SDS011;67584;51.400;6.692;2023-04-06T03:56:16;17.48;;;9.63;;
78324;SDS011;67584;51.400;6.692;2023-04-06T03:58:42;14.98;;;9.70;;
78324;SDS011;67584;51.400;6.692;2023-04-06T04:01:10;18.40;;;10.68;;
78324;SDS011;67584;51.400;6.692;2023-04-06T04:03:36;16.02;;;9.38;;
78324;SDS011;67584;51.400;6.692;2023-04-06T04:06:03;14.50;;;9.05;;
78324;SDS011;67584;51.400;6.692;2023-04-06T04:08:29;14.48;;;8.55;;
78324;SDS011;67584;51.400;6.692;2023-04-06T04:10:55;16.38;;;10.52;;
78324;SDS011;67584;51.400;6.692;2023-04-06T04:13:21;13.55;;;8.38;;
78324;SDS011;67584;51.400;6.692;2023-04-06T04:15:50;14.32;;;7.63;;
78324;SDS011;67584;51.400;6.692;2023-04-06T04:18:16;15.18;;;9.52;;
78324;SDS011;67584;51.400;6.692;2023-04-06T04:20:42;12.68;;;7.53;;
78324;SDS011;67584;51.400;6.692;2023-04-06T04:23:10;13.52;;;7.80;;
78324;SDS011;67584;51.400;6.692;2023-04-06T04:25:37;13.48;;;7.85;;
78324;SDS011;67584;51.400;6.692;2023-04-06T04:28:05;13.93;;;8.73;;
78324;SDS011;67584;51.400;6.692;2023-04-06T04:30:32;13.43;;;8.15;;
78324;SDS011;67584;51.400;6.692;2023-04-06T04:32:59;14.13;;;8.93;;
78324;SDS011;67584;51.400;6.692;2023-04-06T04:35:26;16.70;;;9.00;;
78324;SDS011;67584;51.400;6.692;2023-04-06T04:37:54;15.02;;;8.52;;
78324;SDS011;67584;51.400;6.692;2023-04-06T04:40:22;13.25;;;8.43;;
78324;SDS011;67584;51.400;6.692;2023-04-06T04:42:55;12.48;;;7.38;;
78324;SDS011;67584;51.400;6.692;2023-04-06T04:45:28;12.10;;;7.25;;
78324;SDS011;67584;51.400;6.692;2023-04-06T04:47:55;10.70;;;6.35;;
78324;SDS011;67584;51.400;6.692;2023-04-06T04:50:26;12.38;;;6.70;;
78324;SDS011;67584;51.400;6.692;2023-04-06T04:52:55;9.38;;;6.57;;
78324;SDS011;67584;51.400;6.692;2023-04-06T04:55:24;10.23;;;6.80;;
78324;SDS011;67584;51.400;6.692;2023-04-06T04:57:54;7.30;;;5.40;;
78324;SDS011;67584;51.400;6.692;2023-04-06T05:00:30;8.45;;;5.93;;
78324;SDS011;67584;51.400;6.692;2023-04-06T05:02:59;8.68;;;6.20;;
78324;SDS011;67584;51.400;6.692;2023-04-06T05:07:54;15.48;;;6.40;;
78324;SDS011;67584;51.400;6.692;2023-04-06T05:10:45;10.70;;;5.28;;
78324;SDS011;67584;51.400;6.692;2023-04-06T05:13:11;12.15;;;7.13;;
78324;SDS011;67584;51.400;6.692;2023-04-06T05:15:38;12.10;;;6.20;;
78324;SDS011;67584;51.400;6.692;2023-04-06T05:18:16;11.02;;;7.10;;
78324;SDS011;67584;51.400;6.692;2023-04-06T05:20:42;10.25;;;6.72;;
78324;SDS011;67584;51.400;6.692;2023-04-06T05:23:09;10.73;;;6.93;;
78324;SDS011;67584;51.400;6.692;2023-04-06T05:25:36;11.65;;;7.70;;
78324;SDS011;67584;51.400;6.692;2023-04-06T05:28:17;13.88;;;6.70;;
78324;SDS011;67584;51.400;6.692;2023-04-06T05:30:44;13.50;;;6.80;;
78324;SDS011;67584;51.400;6.692;2023-04-06T05:33:11;13.40;;;7.57;;
78324;SDS011;67584;51.400;6.692;2023-04-06T05:35:57;11.35;;;6.93;;
78324;SDS011;67584;51.400;6.692;2023-04-06T05:38:25;12.77;;;7.03;;
78324;SDS011;67584;51.400;6.692;2023-04-06T05:40:53;13.05;;;6.78;;
78324;SDS011;67584;51.400;6.692;2023-04-06T05:43:24;11.98;;;6.97;;
78324;SDS011;67584;51.400;6.692;2023-04-06T05:45:54;14.52;;;7.75;;
78324;SDS011;67584;51.400;6.692;2023-04-06T05:48:21;12.35;;;7.78;;
78324;SDS011;67584;51.400;6.692;2023-04-06T05:50:48;15.45;;;8.25;;
78324;SDS011;67584;51.400;6.692;2023-04-06T05:53:17;23.63;;;9.60;;
78324;SDS011;67584;51.400;6.692;2023-04-06T05:55:50;17.20;;;8.35;;
78324;SDS011;67584;51.400;6.692;2023-04-06T05:58:19;11.75;;;7.25;;
78324;SDS011;67584;51.400;6.692;2023-04-06T06:00:47;13.25;;;7.50;;
78324;SDS011;67584;51.400;6.692;2023-04-06T06:03:15;12.55;;;6.88;;
78324;SDS011;67584;51.400;6.692;2023-04-06T06:05:47;9.77;;;6.28;;
78324;SDS011;67584;51.400;6.692;2023-04-06T06:08:20;12.13;;;6.97;;
78324;SDS011;67584;51.400;6.692;2023-04-06T06:10:49;12.18;;;6.45;;
78324;SDS011;67584;51.400;6.692;2023-04-06T06:13:21;11.13;;;6.55;;
78324;SDS011;67584;51.400;6.692;2023-04-06T06:15:51;14.23;;;8.65;;
78324;SDS011;67584;51.400;6.692;2023-04-06T06:18:19;17.48;;;8.15;;
78324;SDS011;67584;51.400;6.692;2023-04-06T06:20:47;7.85;;;5.65;;
78324;SDS011;67584;51.400;6.692;2023-04-06T06:23:16;11.38;;;7.95;;
78324;SDS011;67584;51.400;6.692;2023-04-06T06:25:44;8.93;;;6.18;;
78324;SDS011;67584;51.400;6.692;2023-04-06T06:28:11;14.20;;;6.55;;
78324;SDS011;67584;51.400;6.692;2023-04-06T06:30:37;10.55;;;6.85;;
78324;SDS011;67584;51.400;6.692;2023-04-06T06:33:04;11.05;;;7.40;;
78324;SDS011;67584;51.400;6.692;2023-04-06T06:35:30;10.20;;;5.68;;
78324;SDS011;67584;51.400;6.692;2023-04-06T06:37:59;7.72;;;6.00;;
78324;SDS011;67584;51.400;6.692;2023-04-06T06:40:28;9.98;;;5.82;;
78324;SDS011;67584;51.400;6.692;2023-04-06T06:45:45;13.20;;;6.05;;
78324;SDS011;67584;51.400;6.692;2023-04-06T06:50:40;9.98;;;6.43;;
78324;SDS011;67584;51.400;6.692;2023-04-06T06:53:06;15.13;;;6.85;;
78324;SDS011;67584;51.400;6.692;2023-04-06T06:55:33;12.90;;;6.47;;
78324;SDS011;67584;51.400;6.692;2023-04-06T06:57:59;11.00;;;6.57;;
78324;SDS011;67584;51.400;6.692;2023-04-06T07:00:25;9.70;;;6.05;;
78324;SDS011;67584;51.400;6.692;2023-04-06T07:02:52;11.63;;;6.80;;
78324;SDS011;67584;51.400;6.692;2023-04-06T07:05:18;14.05;;;6.25;;
78324;SDS011;67584;51.400;6.692;2023-04-06T07:07:43;8.50;;;5.88;;
78324;SDS011;67584;51.400;6.692;2023-04-06T07:10:10;8.07;;;5.40;;
78324;SDS011;67584;51.400;6.692;2023-04-06T07:12:38;13.18;;;7.32;;
78324;SDS011;67584;51.400;6.692;2023-04-06T07:15:05;11.02;;;6.07;;
78324;SDS011;67584;51.400;6.692;2023-04-06T07:17:32;12.77;;;7.53;;
78324;SDS011;67584;51.400;6.692;2023-04-06T07:19:59;12.38;;;7.90;;
78324;SDS011;67584;51.400;6.692;2023-04-06T07:22:24;12.30;;;8.52;;
78324;SDS011;67584;51.400;6.692;2023-04-06T07:24:52;9.30;;;6.68;;
78324;SDS011;67584;51.400;6.692;2023-04-06T07:27:17;10.25;;;7.00;;
78324;SDS011;67584;51.400;6.692;2023-04-06T07:29:44;12.68;;;6.95;;
78324;SDS011;67584;51.400;6.692;2023-04-06T07:32:11;9.80;;;6.28;;
78324;SDS011;67584;51.400;6.692;2023-04-06T07:34:37;14.85;;;7.53;;
78324;SDS011;67584;51.400;6.692;2023-04-06T07:37:05;10.23;;;7.43;;
78324;SDS011;67584;51.400;6.692;2023-04-06T07:39:31;15.65;;;7.05;;
78324;SDS011;67584;51.400;6.692;2023-04-06T07:41:58;10.20;;;6.40;;
78324;SDS011;67584;51.400;6.692;2023-04-06T07:44:23;10.55;;;6.25;;
78324;SDS011;67584;51.400;6.692;2023-04-06T07:46:50;9.98;;;6.25;;
78324;SDS011;67584;51.400;6.692;2023-04-06T07:49:20;13.15;;;8.02;;
78324;SDS011;67584;51.400;6.692;2023-04-06T07:51:47;16.42;;;8.50;;
78324;SDS011;67584;51.400;6.692;2023-04-06T07:54:14;9.60;;;7.28;;
78324;SDS011;67584;51.400;6.692;2023-04-06T07:56:40;10.73;;;6.80;;
78324;SDS011;67584;51.400;6.692;2023-04-06T07:59:06;13.65;;;7.25;;
78324;SDS011;67584;51.400;6.692;2023-04-06T08:01:32;13.07;;;7.80;;
78324;SDS011;67584;51.400;6.692;2023-04-06T08:03:59;24.13;;;9.63;;
78324;SDS011;67584;51.400;6.692;2023-04-06T08:08:54;11.02;;;7.55;;
78324;SDS011;67584;51.400;6.692;2023-04-06T08:11:21;11.23;;;7.40;;
78324;SDS011;67584;51.400;6.692;2023-04-06T08:13:48;10.32;;;7.53;;
78324;SDS011;67584;51.400;6.692;2023-04-06T08:16:14;16.27;;;9.88;;
78324;SDS011;67584;51.400;6.692;2023-04-06T08:18:40;11.45;;;8.35;;
78324;SDS011;67584;51.400;6.692;2023-04-06T08:21:08;13.88;;;7.55;;
78324;SDS011;67584;51.400;6.692;2023-04-06T08:23:35;17.83;;;9.45;;
78324;SDS011;67584;51.400;6.692;2023-04-06T08:26:00;16.45;;;9.38;;
78324;SDS011;67584;51.400;6.692;2023-04-06T08:28:26;18.20;;;9.48;;
78324;SDS011;67584;51.400;6.692;2023-04-06T08:30:52;14.27;;;8.93;;
78324;SDS011;67584;51.400;6.692;2023-04-06T08:33:18;14.27;;;8.82;;
78324;SDS011;67584;51.400;6.692;2023-04-06T08:35:45;13.82;;;8.10;;
78324;SDS011;67584;51.400;6.692;2023-04-06T08:38:11;16.90;;;8.85;;
78324;SDS011;67584;51.400;6.692;2023-04-06T08:40:39;12.93;;;7.95;;
78324;SDS011;67584;51.400;6.692;2023-04-06T08:43:09;14.75;;;7.82;;
78324;SDS011;67584;51.400;6.692;2023-04-06T08:45:40;11.88;;;7.80;;
78324;SDS011;67584;51.400;6.692;2023-04-06T08:48:07;16.67;;;8.45;;
78324;SDS011;67584;51.400;6.692;2023-04-06T08:50:34;14.23;;;7.78;;
78324;SDS011;67584;51.400;6.692;2023-04-06T08:53:01;12.98;;;7.60;;
78324;SDS011;67584;51.400;6.692;2023-04-06T08:55:27;13.10;;;8.80;;
78324;SDS011;67584;51.400;6.692;2023-04-06T08:57:53;10.90;;;7.57;;
78324;SDS011;67584;51.400;6.692;2023-04-06T09:00:21;13.05;;;8.50;;
78324;SDS011;67584;51.400;6.692;2023-04-06T09:02:48;11.68;;;7.78;;
78324;SDS011;67584;51.400;6.692;2023-04-06T09:05:15;11.30;;;8.25;;
78324;SDS011;67584;51.400;6.692;2023-04-06T09:07:41;13.50;;;8.65;;
78324;SDS011;67584;51.400;6.692;2023-04-06T09:10:08;13.95;;;8.32;;
78324;SDS011;67584;51.400;6.692;2023-04-06T09:12:34;13.25;;;8.35;;
78324;SDS011;67584;51.400;6.692;2023-04-06T09:15:01;16.13;;;8.77;;
78324;SDS011;67584;51.400;6.692;2023-04-06T09:17:28;14.02;;;8.35;;
78324;SDS011;67584;51.400;6.692;2023-04-06T09:19:57;12.80;;;8.43;;
78324;SDS011;67584;51.400;6.692;2023-04-06T09:22:23;14.30;;;9.15;;
78324;SDS011;67584;51.400;6.692;2023-04-06T09:24:54;18.73;;;8.45;;
78324;SDS011;67584;51.400;6.692;2023-04-06T09:27:32;12.23;;;7.18;;
78324;SDS011;67584;51.400;6.692;2023-04-06T09:30:09;14.70;;;8.52;;
78324;SDS011;67584;51.400;6.692;2023-04-06T09:32:45;15.80;;;9.40;;
78324;SDS011;67584;51.400;6.692;2023-04-06T09:35:13;16.75;;;9.02;;
78324;SDS011;67584;51.400;6.692;2023-04-06T09:37:52;12.77;;;8.80;;
78324;SDS011;67584;51.400;6.692;2023-04-06T09:40:18;13.13;;;7.45;;
78324;SDS011;67584;51.400;6.692;2023-04-06T09:42:45;16.23;;;8.80;;
78324;SDS011;67584;51.400;6.692;2023-04-06T09:45:12;14.25;;;8.50;;
78324;SDS011;67584;51.400;6.692;2023-04-06T09:47:40;14.60;;;8.93;;
78324;SDS011;67584;51.400;6.692;2023-04-06T09:50:10;16.27;;;9.85;;
78324;SDS011;67584;51.400;6.692;2023-04-06T09:52:46;11.30;;;7.40;;
78324;SDS011;67584;51.400;6.692;2023-04-06T09:55:23;15.25;;;8.35;;
78324;SDS011;67584;51.400;6.692;2023-04-06T09:58:03;14.60;;;8.73;;
78324;SDS011;67584;51.400;6.692;2023-04-06T10:00:32;17.23;;;9.55;;
78324;SDS011;67584;51.400;6.692;2023-04-06T10:05:52;12.25;;;8.05;;
78324;SDS011;67584;51.400;6.692;2023-04-06T10:08:24;15.43;;;8.52;;
78324;SDS011;67584;51.400;6.692;2023-04-06T10:10:54;13.77;;;8.27;;
78324;SDS011;67584;51.400;6.692;2023-04-06T10:13:23;15.88;;;8.48;;
78324;SDS011;67584;51.400;6.692;2023-04-06T10:15:49;16.65;;;8.50;;
78324;SDS011;67584;51.400;6.692;2023-04-06T10:18:17;13.82;;;8.85;;
78324;SDS011;67584;51.400;6.692;2023-04-06T10:25:58;16.38;;;9.40;;
78324;SDS011;67584;51.400;6.692;2023-04-06T10:28:25;13.70;;;7.90;;
78324;SDS011;67584;51.400;6.692;2023-04-06T10:30:58;16.33;;;8.75;;
78324;SDS011;67584;51.400;6.692;2023-04-06T10:33:25;13.80;;;8.60;;
78324;SDS011;67584;51.400;6.692;2023-04-06T10:35:52;23.63;;;10.63;;
78324;SDS011;67584;51.400;6.692;2023-04-06T10:38:19;17.33;;;9.65;;
78324;SDS011;67584;51.400;6.692;2023-04-06T10:40:47;15.27;;;9.05;;
78324;SDS011;67584;51.400;6.692;2023-04-06T10:43:20;14.68;;;9.15;;
78324;SDS011;67584;51.400;6.692;2023-04-06T10:45:57;17.67;;;10.48;;
78324;SDS011;67584;51.400;6.692;2023-04-06T10:48:47;14.10;;;9.38;;
78324;SDS011;67584;51.400;6.692;2023-04-06T10:51:12;17.20;;;9.85;;
78324;SDS011;67584;51.400;6.692;2023-04-06T10:53:41;14.50;;;8.48;;
78324;SDS011;67584;51.400;6.692;2023-04-06T10:56:12;13.90;;;8.45;;
78324;SDS011;67584;51.400;6.692;2023-04-06T10:58:48;14.10;;;9.30;;
78324;SDS011;67584;51.400;6.692;2023-04-06T11:01:18;15.65;;;9.93;;
78324;SDS011;67584;51.400;6.692;2023-04-06T11:03:50;14.60;;;9.68;;
78324;SDS011;67584;51.400;6.692;2023-04-06T11:06:23;15.43;;;9.00;;
78324;SDS011;67584;51.400;6.692;2023-04-06T11:08:52;17.48;;;9.02;;
78324;SDS011;67584;51.400;6.692;2023-04-06T11:11:20;14.48;;;9.43;;
78324;SDS011;67584;51.400;6.692;2023-04-06T11:13:58;17.30;;;9.65;;
78324;SDS011;67584;51.400;6.692;2023-04-06T11:16:27;13.55;;;8.48;;
78324;SDS011;67584;51.400;6.692;2023-04-06T11:18:58;16.88;;;9.15;;
78324;SDS011;67584;51.400;6.692;2023-04-06T11:24:13;16.33;;;8.30;;
78324;SDS011;67584;51.400;6.692;2023-04-06T11:26:47;18.42;;;10.07;;
78324;SDS011;67584;51.400;6.692;2023-04-06T11:29:25;14.95;;;9.73;;
78324;SDS011;67584;51.400;6.692;2023-04-06T11:32:04;16.20;;;9.57;;
78324;SDS011;67584;51.400;6.692;2023-04-06T11:34:34;18.02;;;9.80;;
78324;SDS011;67584;51.400;6.692;2023-04-06T11:37:03;14.35;;;7.43;;
78324;SDS011;67584;51.400;6.692;2023-04-06T11:39:32;17.58;;;9.63;;
78324;SDS011;67584;51.400;6.692;2023-04-06T11:42:20;14.90;;;8.55;;
78324;SDS011;67584;51.400;6.692;2023-04-06T11:44:49;15.88;;;9.70;;
78324;SDS011;67584;51.400;6.692;2023-04-06T11:47:18;16.25;;;8.57;;
78324;SDS011;67584;51.400;6.692;2023-04-06T11:49:52;13.82;;;8.10;;
78324;SDS011;67584;51.400;6.692;2023-04-06T11:52:24;13.75;;;8.30;;
78324;SDS011;67584;51.400;6.692;2023-04-06T11:54:54;15.32;;;8.93;;
78324;SDS011;67584;51.400;6.692;2023-04-06T11:57:22;15.30;;;9.40;;
78324;SDS011;67584;51.400;6.692;2023-04-06T11:59:51;17.42;;;8.95;;
78324;SDS011;67584;51.400;6.692;2023-04-06T12:02:18;15.50;;;9.48;;
78324;SDS011;67584;51.400;6.692;2023-04-06T12:04:44;15.50;;;9.57;;
78324;SDS011;67584;51.400;6.692;2023-04-06T12:07:11;15.43;;;9.88;;
78324;SDS011;67584;51.400;6.692;2023-04-06T12:09:37;16.40;;;8.75;;
78324;SDS011;67584;51.400;6.692;2023-04-06T12:12:03;15.77;;;8.90;;
78324;SDS011;67584;51.400;6.692;2023-04-06T12:14:29;15.13;;;9.32;;
78324;SDS011;67584;51.400;6.692;2023-04-06T12:16:56;15.32;;;9.52;;
78324;SDS011;67584;51.400;6.692;2023-04-06T12:19:23;18.35;;;9.75;;
78324;SDS011;67584;51.400;6.692;2023-04-06T12:21:51;14.95;;;9.85;;
78324;SDS011;67584;51.400;6.692;2023-04-06T12:24:18;13.15;;;8.40;;
78324;SDS011;67584;51.400;6.692;2023-04-06T12:26:44;14.30;;;9.00;;
78324;SDS011;67584;51.400;6.692;2023-04-06T12:29:10;14.45;;;9.43;;
78324;SDS011;67584;51.400;6.692;2023-04-06T12:31:38;19.83;;;10.00;;
78324;SDS011;67584;51.400;6.692;2023-04-06T12:34:07;13.90;;;8.55;;
78324;SDS011;67584;51.400;6.692;2023-04-06T12:36:33;15.48;;;9.10;;
78324;SDS011;67584;51.400;6.692;2023-04-06T12:38:59;14.35;;;9.20;;
78324;SDS011;67584;51.400;6.692;2023-04-06T12:41:29;9.85;;;6.93;;
78324;SDS011;67584;51.400;6.692;2023-04-06T12:43:55;10.43;;;7.05;;
78324;SDS011;67584;51.400;6.692;2023-04-06T12:46:21;10.63;;;6.45;;
78324;SDS011;67584;51.400;6.692;2023-04-06T12:48:48;8.88;;;5.35;;
78324;SDS011;67584;51.400;6.692;2023-04-06T12:51:13;8.30;;;5.25;;
78324;SDS011;67584;51.400;6.692;2023-04-06T12:53:39;9.05;;;5.53;;
78324;SDS011;67584;51.400;6.692;2023-04-06T12:56:16;9.38;;;5.85;;
78324;SDS011;67584;51.400;6.692;2023-04-06T12:58:42;8.07;;;5.13;;
78324;SDS011;67584;51.400;6.692;2023-04-06T13:01:09;11.07;;;6.93;;
78324;SDS011;67584;51.400;6.692;2023-04-06T13:03:37;11.68;;;6.22;;
78324;SDS011;67584;51.400;6.692;2023-04-06T13:06:04;8.65;;;5.50;;
78324;SDS011;67584;51.400;6.692;2023-04-06T13:08:30;8.00;;;5.18;;
78324;SDS011;67584;51.400;6.692;2023-04-06T13:10:57;8.07;;;5.13;;
78324;SDS011;67584;51.400;6.692;2023-04-06T13:13:25;8.23;;;5.78;;
78324;SDS011;67584;51.400;6.692;2023-04-06T13:15:52;7.28;;;4.55;;
78324;SDS011;67584;51.400;6.692;2023-04-06T13:18:21;6.40;;;4.25;;
78324;SDS011;67584;51.400;6.692;2023-04-06T13:20:48;7.10;;;4.25;;
78324;SDS011;67584;51.400;6.692;2023-04-06T13:23:14;9.68;;;5.22;;
78324;SDS011;67584;51.400;6.692;2023-04-06T13:25:43;7.53;;;4.80;;
78324;SDS011;67584;51.400;6.692;2023-04-06T13:28:10;7.40;;;5.35;;
78324;SDS011;67584;51.400;6.692;2023-04-06T13:30:36;6.45;;;4.00;;
78324;SDS011;67584;51.400;6.692;2023-04-06T13:33:02;8.20;;;4.00;;
78324;SDS011;67584;51.400;6.692;2023-04-06T13:35:28;7.20;;;5.05;;
78324;SDS011;67584;51.400;6.692;2023-04-06T13:37:54;9.18;;;5.20;;
78324;SDS011;67584;51.400;6.692;2023-04-06T13:40:21;9.65;;;5.45;;
78324;SDS011;67584;51.400;6.692;2023-04-06T13:42:47;9.65;;;5.47;;
78324;SDS011;67584;51.400;6.692;2023-04-06T13:45:17;8.85;;;4.88;;
78324;SDS011;67584;51.400;6.692;2023-04-06T13:47:43;9.32;;;6.28;;
78324;SDS011;67584;51.400;6.692;2023-04-06T13:50:09;7.93;;;5.18;;
78324;SDS011;67584;51.400;6.692;2023-04-06T13:52:35;9.27;;;5.57;;
78324;SDS011;67584;51.400;6.692;2023-04-06T13:55:01;7.85;;;5.53;;
78324;SDS011;67584;51.400;6.692;2023-04-06T13:57:27;7.60;;;4.82;;
78324;SDS011;67584;51.400;6.692;2023-04-06T13:59:54;11.63;;;6.55;;
78324;SDS011;67584;51.400;6.692;2023-04-06T14:02:20;11.35;;;5.90;;
78324;SDS011;67584;51.400;6.692;2023-04-06T14:04:51;8.95;;;5.55;;
78324;SDS011;67584;51.400;6.692;2023-04-06T14:07:20;8.65;;;4.97;;
78324;SDS011;67584;51.400;6.692;2023-04-06T14:09:46;8.35;;;5.82;;
78324;SDS011;67584;51.400;6.692;2023-04-06T14:12:12;8.48;;;5.63;;
78324;SDS011;67584;51.400;6.692;2023-04-06T14:14:38;7.93;;;4.80;;
78324;SDS011;67584;51.400;6.692;2023-04-06T14:17:04;8.38;;;5.65;;
78324;SDS011;67584;51.400;6.692;2023-04-06T14:19:32;7.55;;;4.68;;
78324;SDS011;67584;51.400;6.692;2023-04-06T14:21:57;8.98;;;6.50;;
78324;SDS011;67584;51.400;6.692;2023-04-06T14:24:24;8.02;;;5.35;;
78324;SDS011;67584;51.400;6.692;2023-04-06T14:26:49;9.27;;;5.95;;
78324;SDS011;67584;51.400;6.692;2023-04-06T14:29:18;9.57;;;6.43;;
78324;SDS011;67584;51.400;6.692;2023-04-06T14:31:47;8.20;;;5.80;;
78324;SDS011;67584;51.400;6.692;2023-04-06T14:34:13;10.75;;;6.15;;
78324;SDS011;67584;51.400;6.692;2023-04-06T14:36:40;8.05;;;5.50;;
78324;SDS011;67584;51.400;6.692;2023-04-06T14:39:07;12.35;;;6.78;;
78324;SDS011;67584;51.400;6.692;2023-04-06T14:41:33;8.60;;;5.65;;
78324;SDS011;67584;51.400;6.692;2023-04-06T14:44:00;9.98;;;6.32;;
78324;SDS011;67584;51.400;6.692;2023-04-06T14:46:26;11.98;;;6.72;;
78324;SDS011;67584;51.400;6.692;2023-04-06T14:48:56;11.05;;;6.78;;
78324;SDS011;67584;51.400;6.692;2023-04-06T14:51:26;11.95;;;7.35;;
78324;SDS011;67584;51.400;6.692;2023-04-06T14:53:55;10.57;;;6.47;;
78324;SDS011;67584;51.400;6.692;2023-04-06T14:56:23;7.95;;;5.93;;
78324;SDS011;67584;51.400;6.692;2023-04-06T14:58:50;11.57;;;6.78;;
78324;SDS011;67584;51.400;6.692;2023-04-06T15:01:19;9.02;;;6.20;;
78324;SDS011;67584;51.400;6.692;2023-04-06T15:03:48;9.02;;;5.25;;
78324;SDS011;67584;51.400;6.692;2023-04-06T15:06:15;9.05;;;5.90;;